createdAt,value
2023-05-21T00:00:23.011Z,17.53
2023-05-21T00:02:51.439Z,16.87
2023-05-21T00:05:21.426Z,16.27
2023-05-21T00:07:49.476Z,15.73
2023-05-21T00:10:18.724Z,16.93
2023-05-21T00:12:46.844Z,16.70
2023-05-21T00:15:14.751Z,16.33
2023-05-21T00:17:43.367Z,16.63
2023-05-21T00:20:13.032Z,16.20
2023-05-21T00:22:42.182Z,17.50
2023-05-21T00:25:11.355Z,18.30
2023-05-21T00:27:40.797Z,17.47
2023-05-21T00:30:09.778Z,15.37
2023-05-21T00:32:37.902Z,16.90
2023-05-21T00:35:07.463Z,16.90
2023-05-21T00:37:35.429Z,18.60
2023-05-21T00:40:04.807Z,18.33
2023-05-21T00:42:32.787Z,18.33
2023-05-21T00:45:03.993Z,17.77
2023-05-21T00:47:32.427Z,18.37
2023-05-21T00:50:01.064Z,18.70
2023-05-21T00:52:29.490Z,18.97
2023-05-21T00:54:57.625Z,21.10
2023-05-21T00:57:28.116Z,17.67
2023-05-21T00:59:56.437Z,18.90
2023-05-21T01:02:26.114Z,17.87
2023-05-21T01:04:56.183Z,19.40
2023-05-21T01:07:24.300Z,19.00
2023-05-21T01:09:54.177Z,20.07
2023-05-21T01:12:24.437Z,18.17
2023-05-21T01:14:53.345Z,19.03
2023-05-21T01:17:24.316Z,18.53
2023-05-21T01:19:58.943Z,20.70
2023-05-21T01:22:30.702Z,18.63
2023-05-21T01:25:02.724Z,20.13
2023-05-21T01:27:31.152Z,19.13
2023-05-21T01:30:00.396Z,21.20
2023-05-21T01:32:36.344Z,20.17
2023-05-21T01:35:10.822Z,19.77
2023-05-21T01:37:49.091Z,19.47
2023-05-21T01:40:32.864Z,21.90
2023-05-21T01:43:02.405Z,20.23
2023-05-21T01:45:34.267Z,22.53
2023-05-21T01:48:05.847Z,23.00
2023-05-21T01:50:35.498Z,23.67
2023-05-21T01:53:03.966Z,22.03
2023-05-21T01:55:34.285Z,21.80
2023-05-21T01:58:02.802Z,21.87
2023-05-21T02:00:32.685Z,23.67
2023-05-21T02:03:00.882Z,22.00
2023-05-21T02:05:30.146Z,22.27
2023-05-21T02:07:59.994Z,21.67
2023-05-21T02:10:28.303Z,25.90
2023-05-21T02:12:57.648Z,21.63
2023-05-21T02:15:25.725Z,22.83
2023-05-21T02:17:53.980Z,23.17
2023-05-21T02:20:22.920Z,22.93
2023-05-21T02:22:51.057Z,22.00
2023-05-21T02:25:20.644Z,24.40
2023-05-21T02:27:53.456Z,23.40
2023-05-21T02:30:23.117Z,24.13
2023-05-21T02:32:51.494Z,22.83
2023-05-21T02:35:19.772Z,23.27
2023-05-21T02:37:47.781Z,23.37
2023-05-21T02:40:16.753Z,24.27
2023-05-21T02:42:44.793Z,25.47
2023-05-21T02:45:17.645Z,22.93
2023-05-21T02:47:47.037Z,24.93
2023-05-21T02:50:18.260Z,25.33
2023-05-21T02:52:52.775Z,25.23
2023-05-21T02:55:21.341Z,25.13
2023-05-21T02:57:49.577Z,24.13
2023-05-21T03:00:18.506Z,23.50
2023-05-21T03:02:48.178Z,27.07
2023-05-21T03:05:16.444Z,24.97
2023-05-21T03:07:45.898Z,24.47
2023-05-21T03:10:13.868Z,24.97
2023-05-21T03:12:42.082Z,25.63
2023-05-21T03:15:11.795Z,25.77
2023-05-21T03:17:39.854Z,26.07
2023-05-21T03:20:16.104Z,26.47
2023-05-21T03:22:44.690Z,26.80
2023-05-21T03:25:13.800Z,26.43
2023-05-21T03:27:42.114Z,26.40
2023-05-21T03:30:25.597Z,27.53
2023-05-21T03:33:12.069Z,25.43
2023-05-21T03:35:41.856Z,27.77
2023-05-21T03:38:10.100Z,27.83
2023-05-21T03:40:38.067Z,27.23
2023-05-21T03:43:06.339Z,27.63
2023-05-21T03:45:34.520Z,27.93
2023-05-21T03:48:25.412Z,28.17
2023-05-21T03:50:58.149Z,29.10
2023-05-21T03:53:26.242Z,26.13
2023-05-21T03:55:55.770Z,24.87
2023-05-21T03:58:26.837Z,27.63
2023-05-21T04:00:55.175Z,28.70
2023-05-21T04:03:23.580Z,26.70
2023-05-21T04:05:51.779Z,28.17
2023-05-21T04:08:21.344Z,26.33
2023-05-21T04:10:49.591Z,27.00
2023-05-21T04:13:20.752Z,26.03
2023-05-21T04:15:49.496Z,25.77
2023-05-21T04:18:20.476Z,25.50
2023-05-21T04:20:49.925Z,23.87
2023-05-21T04:23:18.074Z,26.90
2023-05-21T04:25:50.548Z,25.50
2023-05-21T04:28:21.095Z,25.43
2023-05-21T04:30:49.944Z,24.13
2023-05-21T04:33:20.210Z,24.43
2023-05-21T04:35:49.971Z,22.30
2023-05-21T04:38:19.764Z,24.33
2023-05-21T04:40:52.069Z,19.80
2023-05-21T04:43:25.490Z,22.93
2023-05-21T04:45:55.261Z,21.23
2023-05-21T04:48:24.630Z,24.17
2023-05-21T04:50:56.878Z,21.53
2023-05-21T04:53:26.102Z,20.30
2023-05-21T04:55:56.003Z,20.90
2023-05-21T04:58:24.001Z,21.70
2023-05-21T05:00:53.586Z,20.87
2023-05-21T05:03:21.823Z,17.50
2023-05-21T05:05:49.921Z,17.03
2023-05-21T05:08:18.086Z,18.60
2023-05-21T05:10:46.405Z,16.17
2023-05-21T05:13:15.874Z,17.53
2023-05-21T05:15:44.648Z,16.57
2023-05-21T05:18:12.791Z,16.37
2023-05-21T05:20:41.933Z,17.43
2023-05-21T05:23:09.876Z,17.17
2023-05-21T05:25:38.349Z,18.23
2023-05-21T05:28:06.466Z,18.07
2023-05-21T05:30:36.277Z,18.07
2023-05-21T05:33:15.778Z,18.57
2023-05-21T05:35:43.783Z,18.37
2023-05-21T05:38:12.197Z,19.33
2023-05-21T05:40:42.959Z,19.13
2023-05-21T05:43:10.912Z,19.70
2023-05-21T05:45:40.646Z,18.80
2023-05-21T05:48:13.870Z,20.63
2023-05-21T05:50:42.681Z,20.20
2023-05-21T05:53:13.213Z,21.60
2023-05-21T05:55:41.256Z,20.93
2023-05-21T05:58:09.293Z,21.40
2023-05-21T06:00:51.334Z,22.37
2023-05-21T06:03:19.525Z,21.03
2023-05-21T06:05:47.624Z,20.80
2023-05-21T06:08:16.618Z,22.03
2023-05-21T06:10:44.554Z,21.97
2023-05-21T06:13:12.780Z,21.67
2023-05-21T06:15:43.194Z,23.67
2023-05-21T06:18:12.704Z,23.60
2023-05-21T06:20:40.843Z,21.80
2023-05-21T06:23:09.667Z,21.93
2023-05-21T06:25:38.508Z,22.53
2023-05-21T06:28:06.727Z,21.63
2023-05-21T06:30:35.691Z,22.33
2023-05-21T06:33:07.648Z,22.17
2023-05-21T06:35:39.849Z,20.83
2023-05-21T06:38:09.498Z,20.60
2023-05-21T06:40:37.442Z,22.77
2023-05-21T06:43:05.799Z,21.50
2023-05-21T06:45:53.727Z,21.57
2023-05-21T06:48:33.427Z,21.90
2023-05-21T06:51:02.992Z,22.33
2023-05-21T06:53:31.159Z,25.40
2023-05-21T06:55:59.209Z,23.43
2023-05-21T06:58:56.430Z,24.07
2023-05-21T07:01:24.973Z,22.20
2023-05-21T07:03:54.349Z,21.93
2023-05-21T07:06:27.843Z,22.77
2023-05-21T07:08:56.316Z,23.00
2023-05-21T07:11:28.673Z,24.63
2023-05-21T07:14:01.287Z,22.67
2023-05-21T07:16:29.978Z,21.67
2023-05-21T07:18:58.503Z,22.10
2023-05-21T07:21:30.291Z,23.30
2023-05-21T07:23:58.608Z,26.23
2023-05-21T07:26:27.145Z,26.90
2023-05-21T07:28:55.581Z,23.50
2023-05-21T07:31:24.042Z,23.17
2023-05-21T07:33:53.542Z,23.63
2023-05-21T07:36:27.245Z,24.37
2023-05-21T07:38:55.834Z,23.87
2023-05-21T07:41:23.833Z,25.27
2023-05-21T07:43:52.801Z,22.97
2023-05-21T07:46:21.271Z,23.77
2023-05-21T07:48:53.648Z,22.87
2023-05-21T07:51:21.932Z,23.27
2023-05-21T07:53:52.325Z,22.83
2023-05-21T07:56:27.789Z,23.23
2023-05-21T07:58:55.755Z,22.00
2023-05-21T08:01:24.054Z,23.20
2023-05-21T08:03:53.471Z,25.23
2023-05-21T08:06:22.241Z,25.60
2023-05-21T08:08:54.294Z,23.83
2023-05-21T08:11:23.347Z,22.53
2023-05-21T08:13:51.552Z,23.23
2023-05-21T08:16:19.728Z,24.57
2023-05-21T08:18:47.960Z,22.73
2023-05-21T08:21:16.997Z,23.20
2023-05-21T08:23:45.490Z,25.90
2023-05-21T08:26:16.405Z,21.83
2023-05-21T08:28:44.453Z,23.00
2023-05-21T08:31:13.217Z,22.00
2023-05-21T08:33:52.148Z,21.27
2023-05-21T08:36:23.826Z,22.17
2023-05-21T08:38:57.252Z,21.93
2023-05-21T08:41:40.625Z,22.17
2023-05-21T08:44:13.456Z,21.73
2023-05-21T08:46:46.565Z,39.83
2023-05-21T08:49:17.464Z,22.47
2023-05-21T08:51:46.560Z,23.27
2023-05-21T08:54:14.959Z,22.80
2023-05-21T08:56:47.133Z,23.07
2023-05-21T08:59:18.095Z,22.60
2023-05-21T09:01:47.313Z,21.80
2023-05-21T09:04:22.949Z,22.00
2023-05-21T09:06:57.794Z,22.47
2023-05-21T09:09:55.312Z,22.60
2023-05-21T09:12:26.040Z,23.10
2023-05-21T09:14:54.670Z,22.93
2023-05-21T09:17:28.168Z,22.33
2023-05-21T09:20:13.574Z,23.23
2023-05-21T09:22:47.665Z,22.27
2023-05-21T09:25:22.582Z,23.10
2023-05-21T09:27:52.633Z,23.83
2023-05-21T09:30:25.309Z,23.60
2023-05-21T09:32:58.496Z,22.47
2023-05-21T09:35:27.983Z,24.07
2023-05-21T09:37:57.347Z,24.50
2023-05-21T09:40:28.401Z,25.37
2023-05-21T09:42:58.422Z,24.33
2023-05-21T09:45:31.019Z,26.07
2023-05-21T09:48:00.371Z,23.43
2023-05-21T09:50:29.277Z,24.77
2023-05-21T09:52:58.201Z,23.57
2023-05-21T09:55:27.678Z,23.63
2023-05-21T09:57:55.617Z,23.50
2023-05-21T10:00:28.905Z,24.57
2023-05-21T10:02:58.878Z,23.13
2023-05-21T10:05:29.591Z,22.23
2023-05-21T10:08:02.132Z,23.30
2023-05-21T10:10:32.339Z,24.97
2023-05-21T10:13:06.801Z,23.50
2023-05-21T10:15:45.158Z,22.50
2023-05-21T10:18:14.921Z,22.70
2023-05-21T10:20:44.114Z,22.33
2023-05-21T10:23:13.068Z,21.53
2023-05-21T10:25:42.376Z,22.40
2023-05-21T10:28:10.812Z,37.27
2023-05-21T10:30:40.452Z,21.50
2023-05-21T10:33:09.266Z,20.67
2023-05-21T10:35:39.468Z,23.17
2023-05-21T10:38:10.506Z,22.20
2023-05-21T10:40:38.807Z,24.23
2023-05-21T10:43:49.783Z,23.27
2023-05-21T10:47:23.896Z,24.30
2023-05-21T10:50:16.712Z,22.63
2023-05-21T10:53:02.905Z,22.93
2023-05-21T10:55:48.419Z,22.90
2023-05-21T10:58:57.472Z,24.00
2023-05-21T11:01:29.880Z,23.63
2023-05-21T11:03:59.415Z,36.33
2023-05-21T11:06:28.489Z,24.33
2023-05-21T11:08:56.861Z,25.07
2023-05-21T11:11:54.023Z,23.70
2023-05-21T11:14:36.028Z,24.37
2023-05-21T11:17:11.150Z,27.33
2023-05-21T11:19:43.204Z,24.97
2023-05-21T11:22:23.070Z,23.67
2023-05-21T11:24:52.670Z,24.30
2023-05-21T11:27:35.435Z,22.77
2023-05-21T11:30:08.589Z,23.83
2023-05-21T11:32:39.904Z,26.30
2023-05-21T11:35:09.957Z,23.83
2023-05-21T11:37:41.533Z,23.67
2023-05-21T11:40:22.406Z,21.80
2023-05-21T11:42:53.109Z,22.60
2023-05-21T11:45:23.050Z,25.10
2023-05-21T11:47:52.575Z,21.80
2023-05-21T11:50:21.967Z,21.67
2023-05-21T11:52:51.350Z,22.37
2023-05-21T11:55:23.791Z,20.17
2023-05-21T11:57:55.357Z,19.60
2023-05-21T12:00:23.731Z,26.17
2023-05-21T12:02:54.356Z,18.93
2023-05-21T12:05:24.360Z,18.40
2023-05-21T12:07:52.498Z,18.77
2023-05-21T12:10:24.405Z,18.10
2023-05-21T12:12:56.598Z,18.53
2023-05-21T12:15:27.632Z,17.03
2023-05-21T12:17:58.642Z,17.40
2023-05-21T12:20:30.922Z,17.80
2023-05-21T12:23:00.291Z,17.47
2023-05-21T12:25:29.883Z,18.07
2023-05-21T12:27:58.900Z,29.57
2023-05-21T12:30:27.514Z,20.03
2023-05-21T12:33:00.410Z,16.43
2023-05-21T12:35:31.543Z,35.57
2023-05-21T12:38:03.073Z,17.13
2023-05-21T12:40:39.035Z,16.30
2023-05-21T12:43:10.849Z,16.50
2023-05-21T12:45:40.583Z,15.33
2023-05-21T12:48:09.212Z,15.60
2023-05-21T12:50:42.239Z,14.77
2023-05-21T12:53:12.324Z,15.70
2023-05-21T12:55:41.064Z,15.27
2023-05-21T12:58:09.576Z,16.30
2023-05-21T13:00:38.250Z,15.53
2023-05-21T13:03:07.207Z,16.20
2023-05-21T13:05:35.983Z,16.60
2023-05-21T13:08:05.894Z,15.67
2023-05-21T13:10:33.928Z,15.80
2023-05-21T13:13:02.063Z,20.03
2023-05-21T13:15:30.241Z,16.47
2023-05-21T13:18:01.103Z,15.37
2023-05-21T13:20:30.078Z,15.27
2023-05-21T13:22:58.399Z,15.67
2023-05-21T13:25:29.554Z,14.07
2023-05-21T13:27:58.833Z,14.47
2023-05-21T13:30:27.074Z,15.13
2023-05-21T13:32:55.627Z,15.10
2023-05-21T13:35:23.819Z,15.50
2023-05-21T13:37:51.936Z,15.73
2023-05-21T13:40:20.189Z,15.77
2023-05-21T13:42:50.700Z,15.20
2023-05-21T13:45:21.108Z,15.80
2023-05-21T13:47:49.924Z,15.23
2023-05-21T13:50:18.389Z,15.03
2023-05-21T13:52:46.943Z,14.67
2023-05-21T13:55:15.881Z,15.03
2023-05-21T13:57:44.450Z,15.53
2023-05-21T14:00:15.800Z,16.03
2023-05-21T14:02:44.625Z,16.00
2023-05-21T14:05:13.279Z,18.23
2023-05-21T14:07:41.916Z,21.97
2023-05-21T14:10:11.186Z,17.67
2023-05-21T14:12:40.596Z,13.97
2023-05-21T14:15:09.718Z,14.70
2023-05-21T14:17:40.485Z,14.37
2023-05-21T14:20:10.452Z,15.10
2023-05-21T14:22:39.732Z,14.07
2023-05-21T14:25:08.791Z,15.20
2023-05-21T14:27:38.259Z,13.67
2023-05-21T14:30:07.926Z,15.77
2023-05-21T14:32:35.998Z,14.20
2023-05-21T14:35:06.667Z,14.33
2023-05-21T14:37:34.879Z,14.53
2023-05-21T14:40:03.429Z,15.27
2023-05-21T14:42:31.972Z,14.73
2023-05-21T14:45:16.957Z,15.20
2023-05-21T14:47:47.633Z,15.73
2023-05-21T14:50:18.801Z,14.73
2023-05-21T14:52:47.420Z,14.27
2023-05-21T14:55:16.877Z,14.73
2023-05-21T14:57:45.230Z,14.60
2023-05-21T15:00:14.394Z,14.40
2023-05-21T15:02:42.598Z,15.27
2023-05-21T15:05:10.872Z,14.17
2023-05-21T15:07:40.223Z,14.40
2023-05-21T15:10:10.361Z,14.63
2023-05-21T15:12:38.625Z,14.57
2023-05-21T15:15:08.196Z,15.17
2023-05-21T15:17:36.876Z,14.50
2023-05-21T15:20:06.013Z,14.17
2023-05-21T15:22:34.795Z,13.57
2023-05-21T15:25:06.313Z,14.50
2023-05-21T15:27:34.838Z,14.60
2023-05-21T15:30:03.995Z,14.63
2023-05-21T15:32:32.203Z,14.40
2023-05-21T15:35:00.387Z,13.87
2023-05-21T15:37:32.020Z,14.40
2023-05-21T15:40:00.284Z,41.67
2023-05-21T15:42:31.611Z,14.97
2023-05-21T15:45:00.265Z,13.87
2023-05-21T15:47:28.250Z,26.03
2023-05-21T15:49:56.413Z,13.57
2023-05-21T15:52:25.501Z,13.90
2023-05-21T15:54:53.823Z,13.37
2023-05-21T15:57:22.018Z,14.03
2023-05-21T15:59:52.514Z,13.90
2023-05-21T16:02:20.919Z,14.17
2023-05-21T16:04:49.973Z,13.53
2023-05-21T16:07:17.976Z,13.93
2023-05-21T16:09:46.227Z,13.77
2023-05-21T16:12:14.868Z,14.37
2023-05-21T16:14:42.792Z,22.13
2023-05-21T16:17:12.139Z,15.37
2023-05-21T16:19:40.288Z,13.57
2023-05-21T16:22:10.547Z,13.40
2023-05-21T16:24:38.868Z,13.73
2023-05-21T16:27:07.081Z,13.07
2023-05-21T16:29:35.000Z,14.77
2023-05-21T16:32:06.400Z,13.03
2023-05-21T16:34:38.419Z,14.77
2023-05-21T16:37:08.591Z,14.43
2023-05-21T16:39:36.694Z,13.60
2023-05-21T16:42:04.919Z,13.80
2023-05-21T16:44:32.919Z,12.80
2023-05-21T16:47:01.955Z,13.13
2023-05-21T16:49:29.959Z,13.63
2023-05-21T16:52:01.149Z,13.77
2023-05-21T16:54:29.148Z,13.13
2023-05-21T16:56:57.227Z,13.63
2023-05-21T16:59:25.193Z,12.77
2023-05-21T17:01:53.424Z,12.60
2023-05-21T17:04:21.850Z,13.00
2023-05-21T17:06:49.843Z,13.87
2023-05-21T17:09:19.538Z,12.80
2023-05-21T17:11:47.793Z,12.73
2023-05-21T17:14:27.013Z,12.87
2023-05-21T17:17:01.995Z,15.03
2023-05-21T17:19:30.542Z,13.10
2023-05-21T17:21:59.011Z,13.03
2023-05-21T17:24:28.585Z,12.47
2023-05-21T17:26:56.550Z,13.43
2023-05-21T17:29:24.483Z,13.57
2023-05-21T17:31:55.236Z,12.43
2023-05-21T17:34:24.583Z,13.30
2023-05-21T17:36:52.541Z,13.33
2023-05-21T17:39:20.883Z,12.87
2023-05-21T17:41:50.889Z,12.03
2023-05-21T17:44:19.846Z,13.27
2023-05-21T17:46:51.033Z,13.63
2023-05-21T17:49:20.947Z,13.97
2023-05-21T17:51:49.358Z,12.93
2023-05-21T17:54:17.332Z,12.57
2023-05-21T17:56:46.583Z,13.17
2023-05-21T17:59:16.910Z,13.77
2023-05-21T18:01:45.258Z,14.10
2023-05-21T18:04:13.586Z,13.73
2023-05-21T18:06:47.636Z,12.87
2023-05-21T18:09:18.801Z,12.67
2023-05-21T18:11:47.165Z,13.07
2023-05-21T18:14:16.489Z,13.03
2023-05-21T18:16:44.548Z,13.23
2023-05-21T18:19:13.016Z,13.20
2023-05-21T18:21:41.059Z,13.50
2023-05-21T18:24:09.535Z,13.20
2023-05-21T18:26:37.776Z,13.57
2023-05-21T18:29:05.796Z,13.80
2023-05-21T18:31:35.342Z,14.00
2023-05-21T18:34:03.321Z,13.67
2023-05-21T18:36:38.333Z,13.00
2023-05-21T18:39:07.996Z,14.17
2023-05-21T18:41:37.159Z,13.40
2023-05-21T18:44:06.033Z,14.60
2023-05-21T18:46:36.280Z,14.93
2023-05-21T18:49:06.317Z,14.87
2023-05-21T18:51:34.280Z,14.57
2023-05-21T18:54:02.366Z,14.33
2023-05-21T18:56:30.315Z,14.60
2023-05-21T18:58:58.337Z,14.40
2023-05-21T19:01:26.551Z,13.73
2023-05-21T19:03:55.989Z,13.67
2023-05-21T19:06:25.546Z,15.17
2023-05-21T19:08:53.619Z,15.07
2023-05-21T19:11:23.599Z,15.23
2023-05-21T19:13:51.747Z,15.53
2023-05-21T19:16:22.573Z,15.60
2023-05-21T19:18:50.605Z,14.57
2023-05-21T19:21:20.289Z,16.43
2023-05-21T19:23:53.087Z,15.83
2023-05-21T19:26:22.531Z,16.57
2023-05-21T19:28:53.287Z,15.30
2023-05-21T19:31:22.754Z,15.87
2023-05-21T19:33:51.152Z,15.80
2023-05-21T19:36:21.559Z,16.47
2023-05-21T19:38:51.469Z,16.73
2023-05-21T19:41:22.662Z,15.23
2023-05-21T19:43:51.038Z,15.73
2023-05-21T19:46:20.488Z,16.47
2023-05-21T19:48:48.986Z,14.40
2023-05-21T19:51:17.645Z,15.63
2023-05-21T19:53:47.151Z,16.80
2023-05-21T19:56:15.140Z,16.30
2023-05-21T19:58:46.949Z,16.53
2023-05-21T20:01:15.952Z,16.97
2023-05-21T20:03:45.415Z,16.47
2023-05-21T20:06:15.307Z,15.80
2023-05-21T20:08:43.251Z,16.50
2023-05-21T20:11:12.524Z,16.33
2023-05-21T20:13:41.747Z,15.27
2023-05-21T20:16:12.533Z,16.10
2023-05-21T20:18:41.651Z,16.23
2023-05-21T20:21:10.476Z,19.10
2023-05-21T20:23:38.411Z,16.50
2023-05-21T20:26:06.682Z,16.70
2023-05-21T20:28:37.316Z,15.83
2023-05-21T20:31:05.980Z,16.27
2023-05-21T20:33:38.105Z,15.90
2023-05-21T20:36:11.258Z,17.03
2023-05-21T20:38:42.013Z,16.30
2023-05-21T20:41:09.995Z,15.10
2023-05-21T20:43:39.264Z,16.50
2023-05-21T20:46:07.694Z,16.97
2023-05-21T20:48:37.680Z,16.90
2023-05-21T20:51:06.190Z,16.67
2023-05-21T20:53:34.411Z,18.07
2023-05-21T20:56:02.341Z,15.83
2023-05-21T20:58:30.274Z,16.67
2023-05-21T21:01:01.787Z,16.37
2023-05-21T21:03:33.751Z,15.77
2023-05-21T21:06:03.027Z,16.27
2023-05-21T21:08:31.015Z,16.23
2023-05-21T21:10:58.986Z,15.70
2023-05-21T21:13:27.187Z,16.03
2023-05-21T21:15:55.454Z,16.83
2023-05-21T21:18:24.740Z,15.47
2023-05-21T21:20:52.906Z,15.33
2023-05-21T21:23:21.029Z,15.20
2023-05-21T21:25:48.950Z,15.17
2023-05-21T21:28:16.937Z,15.60
2023-05-21T21:30:45.697Z,17.00
2023-05-21T21:33:14.461Z,15.97
2023-05-21T21:35:43.930Z,16.37
2023-05-21T21:38:11.855Z,16.00
2023-05-21T21:40:40.096Z,15.03
2023-05-21T21:43:08.245Z,15.93
2023-05-21T21:45:36.408Z,15.00
2023-05-21T21:48:04.889Z,15.43
2023-05-21T21:50:32.856Z,14.60
2023-05-21T21:53:03.683Z,15.40
2023-05-21T21:55:32.999Z,14.73
2023-05-21T21:58:01.251Z,16.80
2023-05-21T22:00:29.726Z,15.63
2023-05-21T22:02:57.717Z,16.00
2023-05-21T22:05:25.654Z,15.43
2023-05-21T22:07:53.737Z,14.17
2023-05-21T22:10:23.137Z,15.40
2023-05-21T22:12:51.248Z,14.63
2023-05-21T22:15:23.937Z,14.60
2023-05-21T22:17:53.381Z,13.70
2023-05-21T22:20:22.898Z,15.63
2023-05-21T22:22:52.318Z,14.07
2023-05-21T22:25:22.462Z,14.53
2023-05-21T22:27:50.512Z,13.90
2023-05-21T22:30:18.961Z,14.80
2023-05-21T22:32:47.728Z,13.30
2023-05-21T22:35:15.752Z,13.60
2023-05-21T22:37:43.706Z,12.37
2023-05-21T22:40:12.298Z,13.90
2023-05-21T22:42:41.813Z,13.50
2023-05-21T22:45:11.801Z,13.80
2023-05-21T22:47:40.334Z,13.60
2023-05-21T22:50:10.076Z,19.87
2023-05-21T22:52:38.353Z,15.63
2023-05-21T22:55:07.882Z,16.23
2023-05-21T22:57:35.799Z,15.57
2023-05-21T23:00:07.329Z,16.80
2023-05-21T23:02:35.439Z,15.00
2023-05-21T23:05:03.504Z,15.93
2023-05-21T23:07:31.603Z,15.43
2023-05-21T23:09:59.520Z,13.57
2023-05-21T23:12:28.783Z,14.77
2023-05-21T23:14:56.717Z,14.07
2023-05-21T23:17:26.476Z,13.87
2023-05-21T23:19:54.396Z,13.40
2023-05-21T23:22:22.480Z,13.97
2023-05-21T23:24:51.053Z,13.53
2023-05-21T23:27:19.056Z,13.30
2023-05-21T23:29:47.067Z,13.30
2023-05-21T23:32:15.146Z,12.33
2023-05-21T23:34:47.277Z,13.73
2023-05-21T23:37:15.251Z,13.43
2023-05-21T23:39:44.227Z,15.60
2023-05-21T23:42:12.180Z,13.07
2023-05-21T23:44:40.105Z,12.97
2023-05-21T23:47:08.107Z,13.13
2023-05-21T23:49:36.085Z,13.20
2023-05-21T23:52:06.696Z,16.57
2023-05-21T23:54:34.748Z,13.33
2023-05-21T23:57:03.014Z,13.83
2023-05-21T23:59:30.989Z,16.33
